createdAt,value
2022-08-28T08:33:06.668Z,82.96
2022-08-28T08:34:08.882Z,82.67
2022-08-28T08:35:12.799Z,82.41
2022-08-28T08:36:18.863Z,82.18
2022-08-28T08:55:25.450Z,79.76
2022-08-28T08:56:34.787Z,79.27
2022-08-28T08:57:38.388Z,79.12
2022-08-28T08:58:43.079Z,78.46
2022-08-28T08:59:44.465Z,77.70
2022-08-28T09:01:01.959Z,77.71
2022-08-28T09:08:39.932Z,74.65
2022-08-28T09:09:44.859Z,72.44
2022-08-28T09:10:55.162Z,70.87
2022-08-28T09:12:04.725Z,70.78
2022-08-28T09:13:27.592Z,69.08
2022-08-28T09:14:47.382Z,69.06
2022-08-28T09:15:50.968Z,71.64
2022-08-28T09:16:53.150Z,72.73
2022-08-28T09:18:12.587Z,70.90
2022-08-28T09:19:18.533Z,70.18
2022-08-28T09:20:32.512Z,73.38
2022-08-28T09:21:38.890Z,76.37
2022-08-28T09:22:45.671Z,77.57
2022-08-28T09:23:47.102Z,76.24
2022-08-28T09:24:48.790Z,75.25
2022-08-28T09:25:59.703Z,74.89
2022-08-28T09:27:27.053Z,72.74
2022-08-28T09:28:41.804Z,70.41
2022-08-28T09:29:54.434Z,70.01
2022-08-28T09:31:01.262Z,69.96
2022-08-28T09:44:05.970Z,67.72
2022-08-28T09:45:22.234Z,70.88
2022-08-28T09:46:29.552Z,69.63
2022-08-28T09:47:40.566Z,69.09
2022-08-28T09:48:52.373Z,69.93
2022-08-28T09:49:54.001Z,69.43
2022-08-28T09:51:21.609Z,71.71
2022-08-28T09:52:25.356Z,70.65
2022-08-28T09:53:28.397Z,69.56
2022-08-28T09:54:39.529Z,69.81
2022-08-28T09:56:12.000Z,70.32
2022-08-28T10:06:18.734Z,65.53
2022-08-28T10:07:36.095Z,65.04
2022-08-28T10:08:40.462Z,64.13
2022-08-28T10:10:07.617Z,63.77
2022-08-28T10:11:44.282Z,64.19
2022-08-28T10:13:20.402Z,62.99
2022-08-28T10:14:51.130Z,63.15
2022-08-28T10:16:09.854Z,63.55
2022-08-28T10:17:38.001Z,63.49
2022-08-28T10:18:53.450Z,63.76
2022-08-28T10:20:24.405Z,63.59
2022-08-28T10:21:28.820Z,63.05
2022-08-28T10:22:50.981Z,61.91
2022-08-28T10:24:02.514Z,61.53
2022-08-28T10:25:21.825Z,60.86
2022-08-28T10:26:41.324Z,59.72
2022-08-28T10:28:10.300Z,57.82
2022-08-28T10:29:38.056Z,57.30
2022-08-28T10:30:53.012Z,58.45
2022-08-28T10:38:53.030Z,55.56
2022-08-28T10:40:01.484Z,54.10
2022-08-28T10:41:12.013Z,54.99
2022-08-28T10:42:19.019Z,55.01
2022-08-28T10:43:29.681Z,55.65
2022-08-28T10:44:36.799Z,56.51
2022-08-28T10:45:42.177Z,56.88
2022-08-28T10:46:52.037Z,57.87
2022-08-28T10:48:10.094Z,57.35
2022-08-28T10:49:41.424Z,58.07
2022-08-28T10:50:45.648Z,55.88
2022-08-28T10:51:50.314Z,55.74
2022-08-28T10:53:00.181Z,53.42
2022-08-28T10:54:12.560Z,53.45
2022-08-28T10:55:21.537Z,54.55
2022-08-28T10:56:30.443Z,54.04
2022-08-28T10:57:49.076Z,54.44
2022-08-28T10:58:57.515Z,53.64
2022-08-28T11:00:02.880Z,53.88
2022-08-28T11:01:16.684Z,54.44
2022-08-28T11:02:21.265Z,54.55
2022-08-28T11:03:35.130Z,54.31
2022-08-28T11:04:37.053Z,55.18
2022-08-28T11:05:53.646Z,55.12
2022-08-28T11:07:06.466Z,55.88
2022-08-28T11:08:23.165Z,57.20
2022-08-28T11:09:38.361Z,56.74
2022-08-28T11:10:50.387Z,54.52
2022-08-28T11:12:01.056Z,52.60
2022-08-28T11:13:06.246Z,51.66
2022-08-28T11:21:08.834Z,45.22
2022-08-28T11:22:19.157Z,45.14
2022-08-28T11:23:24.395Z,43.97
2022-08-28T11:24:51.194Z,42.90
2022-08-28T11:26:01.964Z,44.18
2022-08-28T11:27:31.003Z,43.39
2022-08-28T11:28:35.059Z,44.36
2022-08-28T11:30:21.902Z,42.70
2022-08-28T11:31:30.747Z,44.14
2022-08-28T11:32:32.358Z,45.69
2022-08-28T11:33:47.748Z,44.14
2022-08-28T11:34:59.963Z,42.63
2022-08-28T11:36:01.929Z,42.63
2022-08-28T11:37:03.510Z,42.96
2022-08-28T11:38:05.871Z,42.91
2022-08-28T11:39:13.314Z,42.22
2022-08-28T11:40:28.642Z,46.32
2022-08-28T11:41:34.197Z,44.80
2022-08-28T11:42:37.154Z,44.41
2022-08-28T11:43:40.998Z,43.88
2022-08-28T11:44:45.975Z,43.17
2022-08-28T11:45:47.896Z,42.27
2022-08-28T11:46:52.445Z,41.89
2022-08-28T11:47:56.454Z,43.06
2022-08-28T11:49:03.741Z,42.59
2022-08-28T11:50:16.389Z,41.41
2022-08-28T11:51:17.716Z,40.90
2022-08-28T11:52:47.181Z,41.35
2022-08-28T11:54:26.932Z,43.05
2022-08-28T11:55:50.195Z,41.93
2022-08-28T11:57:01.931Z,41.84
2022-08-28T11:59:35.995Z,41.27
2022-08-28T12:00:57.858Z,40.38
2022-08-28T12:02:37.143Z,41.80
2022-08-28T12:03:58.416Z,42.14
2022-08-28T12:05:00.077Z,41.87
2022-08-28T12:06:02.380Z,40.48
2022-08-28T12:07:09.780Z,40.62
2022-08-28T12:08:12.592Z,41.25
2022-08-28T12:09:26.119Z,42.64
2022-08-28T12:10:27.673Z,42.77
2022-08-28T12:11:44.859Z,43.82
2022-08-28T12:12:59.816Z,45.21
2022-08-28T12:14:01.405Z,45.32
2022-08-28T12:15:07.685Z,46.37
2022-08-28T12:16:09.396Z,46.75
2022-08-28T12:17:49.017Z,46.98
2022-08-28T12:19:00.056Z,46.54
2022-08-28T12:20:10.362Z,46.27
2022-08-28T12:21:24.773Z,45.61
2022-08-28T12:22:53.192Z,45.84
2022-08-28T12:23:59.021Z,44.94
2022-08-28T12:31:59.158Z,40.38
2022-08-28T12:33:10.532Z,40.67
2022-08-28T12:34:28.961Z,41.32
2022-08-28T12:35:30.674Z,41.24
2022-08-28T12:36:32.176Z,41.51
2022-08-28T12:37:51.066Z,41.77
2022-08-28T12:38:55.053Z,42.64
2022-08-28T12:40:09.451Z,42.52
2022-08-28T12:41:22.606Z,43.16
2022-08-28T12:42:29.596Z,41.87
2022-08-28T12:43:46.665Z,41.38
2022-08-28T12:44:48.933Z,44.26
2022-08-28T12:45:56.276Z,47.82
2022-08-28T12:46:58.469Z,46.06
2022-08-28T12:48:04.298Z,44.82
2022-08-28T12:49:27.433Z,45.17
2022-08-28T12:50:38.166Z,46.05
2022-08-28T12:51:42.887Z,45.73
2022-08-28T12:52:53.140Z,44.41
2022-08-28T12:54:01.441Z,43.36
2022-08-28T12:55:02.981Z,41.77
2022-08-28T12:56:04.568Z,41.19
2022-08-28T12:57:09.497Z,40.23
2022-08-28T12:58:27.919Z,44.09
2022-08-28T12:59:37.121Z,42.30
2022-08-28T13:00:54.321Z,40.93
2022-08-28T13:02:06.367Z,40.33
2022-08-28T13:03:07.901Z,40.49
2022-08-28T13:04:27.245Z,40.38
2022-08-28T13:05:39.704Z,39.58
2022-08-28T13:06:41.179Z,39.53
2022-08-28T13:07:49.302Z,40.41
2022-08-28T13:09:15.979Z,40.83
2022-08-28T13:10:22.083Z,40.14
2022-08-28T13:11:23.512Z,40.03
2022-08-28T13:12:37.759Z,39.47
2022-08-28T13:13:50.113Z,39.30
2022-08-28T13:14:52.336Z,40.34
2022-08-28T13:15:57.868Z,39.80
2022-08-28T13:17:02.727Z,40.83
2022-08-28T13:18:04.482Z,40.02
2022-08-28T13:19:06.377Z,39.50
2022-08-28T13:20:08.689Z,39.75
2022-08-28T13:21:13.207Z,39.19
2022-08-28T13:22:41.733Z,40.33
2022-08-28T13:23:55.648Z,40.11
2022-08-28T13:25:02.062Z,39.02
2022-08-28T13:26:06.641Z,38.73
2022-08-28T13:27:08.006Z,38.87
2022-08-28T13:28:17.706Z,38.57
2022-08-28T13:29:24.309Z,39.92
2022-08-28T13:30:38.517Z,41.47
2022-08-28T13:31:40.473Z,40.14
2022-08-28T13:32:55.775Z,39.10
2022-08-28T13:34:16.430Z,39.09
2022-08-28T13:35:17.777Z,38.04
2022-08-28T13:36:26.470Z,39.03
2022-08-28T13:37:53.062Z,38.01
2022-08-28T13:38:54.590Z,37.16
2022-08-28T13:39:57.035Z,39.10
2022-08-28T13:41:03.255Z,37.63
2022-08-28T13:42:08.462Z,37.76
2022-08-28T13:43:11.709Z,38.86
2022-08-28T13:44:34.758Z,38.70
2022-08-28T13:45:42.984Z,38.13
2022-08-28T13:46:45.137Z,38.87
2022-08-28T13:47:46.578Z,39.25
2022-08-28T13:48:47.959Z,40.19
2022-08-28T13:49:49.495Z,41.22
2022-08-28T13:50:56.665Z,40.54
2022-08-28T13:52:00.237Z,39.98
2022-08-28T13:53:02.899Z,39.57
2022-08-28T13:54:04.485Z,38.54
2022-08-28T13:55:08.016Z,37.37
2022-08-28T13:56:12.053Z,37.40
2022-08-28T13:57:13.899Z,37.41
2022-08-28T13:58:15.994Z,36.87
2022-08-28T13:59:18.265Z,36.55
2022-08-28T14:00:19.945Z,37.36
2022-08-28T14:01:44.055Z,37.21
2022-08-28T14:03:04.316Z,38.13
2022-08-28T14:04:05.911Z,38.53
2022-08-28T14:05:07.837Z,37.96
2022-08-28T14:06:14.135Z,37.39
2022-08-28T14:07:15.950Z,39.17
2022-08-28T14:08:17.382Z,40.35
2022-08-28T14:09:19.590Z,44.19
2022-08-28T14:10:22.792Z,44.45
2022-08-28T14:17:04.651Z,43.70
2022-08-28T14:18:06.408Z,43.62
2022-08-28T14:19:08.178Z,43.18
2022-08-28T14:20:14.852Z,44.13
2022-08-28T14:21:16.845Z,43.69
2022-08-28T14:22:18.339Z,43.00
2022-08-28T14:23:19.790Z,41.20
2022-08-28T14:24:22.377Z,40.81
2022-08-28T14:25:26.551Z,40.30
2022-08-28T14:26:28.629Z,39.25
2022-08-28T14:27:30.332Z,39.14
2022-08-28T14:28:31.727Z,39.15
2022-08-28T14:29:33.242Z,39.28
2022-08-28T14:30:34.644Z,38.62
2022-08-28T14:31:37.002Z,39.30
2022-08-28T14:32:38.477Z,39.19
2022-08-28T14:33:39.994Z,39.58
2022-08-28T14:34:43.769Z,39.88
2022-08-28T14:35:46.182Z,39.91
2022-08-28T14:36:54.925Z,38.67
2022-08-28T14:37:56.330Z,39.03
2022-08-28T14:39:05.408Z,41.67
2022-08-28T14:40:08.896Z,40.59
2022-08-28T14:41:10.447Z,40.58
2022-08-28T14:42:13.153Z,40.36
2022-08-28T14:43:15.167Z,42.05
2022-08-28T14:44:17.152Z,41.76
2022-08-28T14:45:19.351Z,41.48
2022-08-28T14:46:28.463Z,41.62
2022-08-28T14:53:03.992Z,39.65
2022-08-28T14:54:07.511Z,39.16
2022-08-28T14:55:11.043Z,39.93
2022-08-28T14:56:16.470Z,38.80
2022-08-28T14:57:17.892Z,39.76
2022-08-28T14:58:20.149Z,39.27
2022-08-28T15:05:04.377Z,38.96
2022-08-28T15:06:08.895Z,39.13
2022-08-28T15:07:11.081Z,39.15
2022-08-28T15:08:16.205Z,39.69
2022-08-28T15:09:19.363Z,38.94
2022-08-28T15:10:20.834Z,40.08
2022-08-28T15:11:27.358Z,39.89
2022-08-28T15:12:28.811Z,40.04
2022-08-28T15:13:31.613Z,39.99
2022-08-28T15:14:33.446Z,40.89
2022-08-28T15:15:35.008Z,40.92
2022-08-28T15:16:41.580Z,40.12
2022-08-28T15:17:44.023Z,40.55
2022-08-28T15:18:46.449Z,39.94
2022-08-28T15:19:47.925Z,40.29
2022-08-28T15:20:49.302Z,40.80
2022-08-28T15:21:54.281Z,40.71
2022-08-28T15:22:55.717Z,40.81
2022-08-28T15:23:57.767Z,40.59
2022-08-28T15:24:59.185Z,40.95
2022-08-28T15:26:00.856Z,40.96
2022-08-28T15:27:02.975Z,40.51
2022-08-28T15:28:04.865Z,40.52
2022-08-28T15:29:07.355Z,40.48
2022-08-28T15:30:09.651Z,40.77
2022-08-28T15:31:11.404Z,40.30
2022-08-28T15:32:12.793Z,40.13
2022-08-28T15:33:14.777Z,39.17
2022-08-28T15:41:22.067Z,38.37
2022-08-28T15:42:23.598Z,38.50
2022-08-28T15:43:25.064Z,39.83
2022-08-28T15:44:27.216Z,38.73
2022-08-28T15:45:29.016Z,38.24
2022-08-28T15:46:33.781Z,38.09
2022-08-28T15:47:36.250Z,38.45
2022-08-28T15:48:37.738Z,38.82
2022-08-28T15:49:48.666Z,38.92
2022-08-28T15:50:51.713Z,38.81
2022-08-28T15:51:54.049Z,38.95
2022-08-28T15:52:58.976Z,38.53
2022-08-28T15:54:01.416Z,38.58
2022-08-28T15:55:03.109Z,39.52
2022-08-28T15:56:04.668Z,39.80
2022-08-28T15:57:06.203Z,40.56
2022-08-28T15:58:08.823Z,40.68
2022-08-28T15:59:17.557Z,40.89
2022-08-28T16:00:19.090Z,40.10
2022-08-28T16:01:22.347Z,40.35
2022-08-28T16:02:24.919Z,41.15
2022-08-28T16:03:26.573Z,40.83
2022-08-28T16:04:27.972Z,41.95
2022-08-28T16:05:35.019Z,42.62
2022-08-28T16:06:41.885Z,42.33
2022-08-28T16:07:43.568Z,42.08
2022-08-28T16:08:46.447Z,42.24
2022-08-28T16:09:48.610Z,42.43
2022-08-28T16:22:15.691Z,43.11
2022-08-28T16:23:17.201Z,42.95
2022-08-28T16:24:18.593Z,42.69
2022-08-28T16:25:20.257Z,42.12
2022-08-28T16:26:22.398Z,42.25
2022-08-28T16:27:24.030Z,42.04
2022-08-28T16:28:26.033Z,41.64
2022-08-28T16:29:28.635Z,42.13
2022-08-28T16:30:31.034Z,42.18
2022-08-28T16:31:34.201Z,43.71
2022-08-28T16:32:35.813Z,45.01
2022-08-28T16:33:38.012Z,44.61
2022-08-28T16:40:10.283Z,45.65
2022-08-28T16:41:14.421Z,45.84
2022-08-28T16:42:17.229Z,46.77
2022-08-28T16:43:20.163Z,46.25
2022-08-28T16:44:24.265Z,46.10
2022-08-28T16:45:26.499Z,45.80
2022-08-28T16:52:04.799Z,45.92
2022-08-28T16:53:07.824Z,46.64
2022-08-28T16:54:09.354Z,46.14
2022-08-28T16:55:11.830Z,46.39
2022-08-28T16:56:15.540Z,46.57
2022-08-28T16:57:18.701Z,46.57
2022-08-28T16:58:20.306Z,46.38
2022-08-28T16:59:24.953Z,46.38
2022-08-28T17:00:27.120Z,46.38
2022-08-28T17:01:28.870Z,46.74
2022-08-28T17:02:30.465Z,47.02
2022-08-28T17:03:32.089Z,46.79
2022-08-28T17:04:33.695Z,47.39
2022-08-28T17:05:35.270Z,47.61
2022-08-28T17:06:42.670Z,47.80
2022-08-28T17:07:44.316Z,47.64
2022-08-28T17:08:46.229Z,47.90
2022-08-28T17:09:47.932Z,48.05
2022-08-28T17:10:50.112Z,48.28
2022-08-28T17:11:52.277Z,47.93
2022-08-28T17:12:54.068Z,48.01
2022-08-28T17:13:55.775Z,48.71
2022-08-28T17:14:57.275Z,48.57
2022-08-28T17:16:01.922Z,48.69
2022-08-28T17:17:04.017Z,48.34
2022-08-28T17:18:05.630Z,48.83
2022-08-28T17:19:07.054Z,49.16
2022-08-28T17:20:30.481Z,49.39
2022-08-28T17:21:50.469Z,49.38
2022-08-28T17:22:51.852Z,49.53
2022-08-28T17:23:54.171Z,49.52
2022-08-28T17:24:59.406Z,50.44
2022-08-28T17:26:00.793Z,50.96
2022-08-28T17:27:05.680Z,50.48
2022-08-28T17:28:07.652Z,50.83
2022-08-28T17:29:09.354Z,51.37
2022-08-28T17:30:15.670Z,51.64
2022-08-28T17:31:18.791Z,51.50
2022-08-28T17:32:20.718Z,51.79
2022-08-28T17:33:22.148Z,51.84
2022-08-28T17:40:02.029Z,53.76
2022-08-28T17:41:06.461Z,53.99
2022-08-28T17:42:07.909Z,54.58
2022-08-28T17:43:09.563Z,54.60
2022-08-28T17:44:11.792Z,54.85
2022-08-28T17:45:14.061Z,55.03
2022-08-28T17:53:02.293Z,55.64
2022-08-28T17:54:04.074Z,56.38
2022-08-28T17:55:06.569Z,56.21
2022-08-28T17:56:08.713Z,56.16
2022-08-28T17:57:10.182Z,57.17
2022-08-28T17:58:12.065Z,56.92
2022-08-28T17:59:14.471Z,56.99
2022-08-28T18:00:19.339Z,57.39
2022-08-28T18:01:25.269Z,57.80
2022-08-28T18:02:27.859Z,57.71
2022-08-28T18:03:30.765Z,57.98
2022-08-28T18:04:45.406Z,57.92
